sensor_id;sensor_type;location;lat;lon;timestamp;P1;durP1;ratioP1;P2;durP2;ratioP2
22983;SDS011;11658;48.908;9.140;2022-08-19T03:03:20;19.60;;;16.23;;
22983;SDS011;11658;48.908;9.140;2022-08-19T03:05:46;18.43;;;16.43;;
22983;SDS011;11658;48.908;9.140;2022-08-19T03:08:12;17.40;;;15.57;;
22983;SDS011;11658;48.908;9.140;2022-08-19T03:10:40;19.13;;;16.50;;
22983;SDS011;11658;48.908;9.140;2022-08-19T03:13:12;19.37;;;16.40;;
22983;SDS011;11658;48.908;9.140;2022-08-19T03:15:39;19.03;;;17.07;;
22983;SDS011;11658;48.908;9.140;2022-08-19T03:18:07;18.97;;;16.97;;
22983;SDS011;11658;48.908;9.140;2022-08-19T03:20:32;18.60;;;16.70;;
22983;SDS011;11658;48.908;9.140;2022-08-19T03:22:58;19.27;;;17.37;;
22983;SDS011;11658;48.908;9.140;2022-08-19T03:25:24;20.43;;;18.33;;
22983;SDS011;11658;48.908;9.140;2022-08-19T03:27:49;19.80;;;17.70;;
22983;SDS011;11658;48.908;9.140;2022-08-19T03:30:15;18.77;;;16.83;;
22983;SDS011;11658;48.908;9.140;2022-08-19T03:32:41;19.70;;;17.60;;
22983;SDS011;11658;48.908;9.140;2022-08-19T03:35:06;20.27;;;17.87;;
22983;SDS011;11658;48.908;9.140;2022-08-19T03:37:32;18.57;;;16.60;;
22983;SDS011;11658;48.908;9.140;2022-08-19T03:39:58;23.07;;;19.10;;
22983;SDS011;11658;48.908;9.140;2022-08-19T03:42:24;21.80;;;18.83;;
22983;SDS011;11658;48.908;9.140;2022-08-19T03:44:51;19.87;;;17.77;;
22983;SDS011;11658;48.908;9.140;2022-08-19T03:47:17;19.97;;;17.97;;
22983;SDS011;11658;48.908;9.140;2022-08-19T03:49:43;21.37;;;19.13;;
22983;SDS011;11658;48.908;9.140;2022-08-19T03:52:08;20.63;;;18.33;;
22983;SDS011;11658;48.908;9.140;2022-08-19T03:54:34;20.40;;;18.30;;
22983;SDS011;11658;48.908;9.140;2022-08-19T03:57:02;21.17;;;19.07;;
22983;SDS011;11658;48.908;9.140;2022-08-19T03:59:30;20.73;;;18.73;;
22983;SDS011;11658;48.908;9.140;2022-08-19T04:01:59;20.53;;;18.33;;
22983;SDS011;11658;48.908;9.140;2022-08-19T04:04:27;20.57;;;18.47;;
22983;SDS011;11658;48.908;9.140;2022-08-19T04:06:53;21.33;;;19.03;;
22983;SDS011;11658;48.908;9.140;2022-08-19T04:09:19;21.47;;;19.27;;
22983;SDS011;11658;48.908;9.140;2022-08-19T04:11:47;19.23;;;17.33;;
22983;SDS011;11658;48.908;9.140;2022-08-19T04:14:16;20.40;;;18.30;;
22983;SDS011;11658;48.908;9.140;2022-08-19T04:16:44;19.13;;;17.13;;
22983;SDS011;11658;48.908;9.140;2022-08-19T04:19:11;20.70;;;18.57;;
22983;SDS011;11658;48.908;9.140;2022-08-19T04:21:38;22.23;;;19.93;;
22983;SDS011;11658;48.908;9.140;2022-08-19T04:24:03;20.30;;;18.23;;
22983;SDS011;11658;48.908;9.140;2022-08-19T04:26:31;21.03;;;18.93;;
22983;SDS011;11658;48.908;9.140;2022-08-19T04:29:00;21.93;;;19.03;;
22983;SDS011;11658;48.908;9.140;2022-08-19T04:31:29;21.47;;;19.20;;
22983;SDS011;11658;48.908;9.140;2022-08-19T04:34:00;22.53;;;20.17;;
22983;SDS011;11658;48.908;9.140;2022-08-19T04:36:33;21.03;;;18.83;;
22983;SDS011;11658;48.908;9.140;2022-08-19T04:39:02;20.73;;;18.53;;
22983;SDS011;11658;48.908;9.140;2022-08-19T04:41:30;21.80;;;19.60;;
22983;SDS011;11658;48.908;9.140;2022-08-19T04:44:14;22.43;;;19.63;;
22983;SDS011;11658;48.908;9.140;2022-08-19T04:46:43;21.30;;;19.20;;
22983;SDS011;11658;48.908;9.140;2022-08-19T04:49:09;22.47;;;19.30;;
22983;SDS011;11658;48.908;9.140;2022-08-19T04:51:36;22.03;;;19.03;;
22983;SDS011;11658;48.908;9.140;2022-08-19T04:54:02;20.47;;;18.33;;
22983;SDS011;11658;48.908;9.140;2022-08-19T04:56:28;20.73;;;18.63;;
22983;SDS011;11658;48.908;9.140;2022-08-19T04:58:54;21.37;;;19.17;;
22983;SDS011;11658;48.908;9.140;2022-08-19T05:01:22;22.47;;;20.17;;
22983;SDS011;11658;48.908;9.140;2022-08-19T05:03:50;22.33;;;19.93;;
22983;SDS011;11658;48.908;9.140;2022-08-19T05:06:17;20.97;;;18.80;;
22983;SDS011;11658;48.908;9.140;2022-08-19T05:08:44;22.73;;;20.27;;
22983;SDS011;11658;48.908;9.140;2022-08-19T05:11:12;21.63;;;19.40;;
22983;SDS011;11658;48.908;9.140;2022-08-19T05:13:42;23.83;;;20.27;;
22983;SDS011;11658;48.908;9.140;2022-08-19T05:16:09;19.97;;;17.97;;
22983;SDS011;11658;48.908;9.140;2022-08-19T05:18:36;21.73;;;19.43;;
22983;SDS011;11658;48.908;9.140;2022-08-19T05:21:21;21.33;;;18.97;;
22983;SDS011;11658;48.908;9.140;2022-08-19T05:24:07;20.60;;;18.50;;
22983;SDS011;11658;48.908;9.140;2022-08-19T05:26:34;20.93;;;18.93;;
22983;SDS011;11658;48.908;9.140;2022-08-19T05:29:01;20.83;;;18.80;;
22983;SDS011;11658;48.908;9.140;2022-08-19T05:31:28;20.87;;;18.83;;
22983;SDS011;11658;48.908;9.140;2022-08-19T05:33:53;20.70;;;18.63;;
22983;SDS011;11658;48.908;9.140;2022-08-19T05:36:19;21.27;;;18.83;;
22983;SDS011;11658;48.908;9.140;2022-08-19T05:38:45;20.80;;;18.00;;
22983;SDS011;11658;48.908;9.140;2022-08-19T05:41:12;20.93;;;18.77;;
22983;SDS011;11658;48.908;9.140;2022-08-19T05:43:39;21.00;;;18.80;;
22983;SDS011;11658;48.908;9.140;2022-08-19T05:46:05;21.17;;;18.87;;
22983;SDS011;11658;48.908;9.140;2022-08-19T05:48:32;21.73;;;19.53;;
22983;SDS011;11658;48.908;9.140;2022-08-19T05:51:02;20.70;;;18.80;;
22983;SDS011;11658;48.908;9.140;2022-08-19T05:53:31;20.77;;;18.53;;
22983;SDS011;11658;48.908;9.140;2022-08-19T05:55:57;22.60;;;19.93;;
22983;SDS011;11658;48.908;9.140;2022-08-19T05:58:23;22.33;;;19.23;;
22983;SDS011;11658;48.908;9.140;2022-08-19T06:00:49;20.63;;;18.50;;
22983;SDS011;11658;48.908;9.140;2022-08-19T06:03:15;21.13;;;19.10;;
22983;SDS011;11658;48.908;9.140;2022-08-19T06:05:40;21.83;;;19.63;;
22983;SDS011;11658;48.908;9.140;2022-08-19T06:08:06;22.67;;;19.73;;
22983;SDS011;11658;48.908;9.140;2022-08-19T06:10:32;20.87;;;18.77;;
22983;SDS011;11658;48.908;9.140;2022-08-19T06:12:58;21.70;;;19.40;;
22983;SDS011;11658;48.908;9.140;2022-08-19T06:15:23;21.67;;;19.47;;
22983;SDS011;11658;48.908;9.140;2022-08-19T06:17:52;20.40;;;18.30;;
22983;SDS011;11658;48.908;9.140;2022-08-19T06:20:18;21.67;;;19.57;;
22983;SDS011;11658;48.908;9.140;2022-08-19T06:22:45;20.53;;;18.33;;
22983;SDS011;11658;48.908;9.140;2022-08-19T06:25:13;20.90;;;18.70;;
22983;SDS011;11658;48.908;9.140;2022-08-19T06:27:39;22.00;;;19.23;;
22983;SDS011;11658;48.908;9.140;2022-08-19T06:30:06;21.60;;;18.63;;
22983;SDS011;11658;48.908;9.140;2022-08-19T06:32:32;21.77;;;19.47;;
22983;SDS011;11658;48.908;9.140;2022-08-19T06:34:58;21.63;;;19.10;;
22983;SDS011;11658;48.908;9.140;2022-08-19T06:37:23;22.77;;;20.47;;
22983;SDS011;11658;48.908;9.140;2022-08-19T06:39:49;22.27;;;19.97;;
22983;SDS011;11658;48.908;9.140;2022-08-19T06:42:15;21.67;;;19.47;;
22983;SDS011;11658;48.908;9.140;2022-08-19T06:44:44;21.13;;;18.00;;
22983;SDS011;11658;48.908;9.140;2022-08-19T06:47:15;20.87;;;18.77;;
22983;SDS011;11658;48.908;9.140;2022-08-19T06:49:43;22.20;;;19.87;;
22983;SDS011;11658;48.908;9.140;2022-08-19T06:52:09;20.43;;;18.40;;
22983;SDS011;11658;48.908;9.140;2022-08-19T06:54:40;20.83;;;18.73;;
22983;SDS011;11658;48.908;9.140;2022-08-19T06:57:07;21.07;;;18.37;;
22983;SDS011;11658;48.908;9.140;2022-08-19T06:59:38;20.60;;;18.50;;
22983;SDS011;11658;48.908;9.140;2022-08-19T07:02:04;20.03;;;18.07;;
22983;SDS011;11658;48.908;9.140;2022-08-19T07:04:31;21.73;;;19.00;;
22983;SDS011;11658;48.908;9.140;2022-08-19T07:07:03;19.77;;;17.80;;
22983;SDS011;11658;48.908;9.140;2022-08-19T07:09:35;21.47;;;18.57;;
22983;SDS011;11658;48.908;9.140;2022-08-19T07:12:02;20.70;;;18.60;;
22983;SDS011;11658;48.908;9.140;2022-08-19T07:14:31;21.53;;;17.90;;
22983;SDS011;11658;48.908;9.140;2022-08-19T07:17:00;24.10;;;17.93;;
22983;SDS011;11658;48.908;9.140;2022-08-19T07:19:26;19.43;;;17.23;;
22983;SDS011;11658;48.908;9.140;2022-08-19T07:21:52;18.53;;;16.67;;
22983;SDS011;11658;48.908;9.140;2022-08-19T07:24:22;19.10;;;17.10;;
22983;SDS011;11658;48.908;9.140;2022-08-19T07:26:50;18.97;;;16.87;;
22983;SDS011;11658;48.908;9.140;2022-08-19T07:29:20;18.57;;;16.67;;
22983;SDS011;11658;48.908;9.140;2022-08-19T07:31:48;18.77;;;16.83;;
22983;SDS011;11658;48.908;9.140;2022-08-19T07:34:14;18.63;;;16.10;;
22983;SDS011;11658;48.908;9.140;2022-08-19T07:36:40;19.00;;;17.10;;
22983;SDS011;11658;48.908;9.140;2022-08-19T07:39:10;18.47;;;16.57;;
22983;SDS011;11658;48.908;9.140;2022-08-19T07:41:43;17.93;;;16.07;;
22983;SDS011;11658;48.908;9.140;2022-08-19T07:44:10;17.87;;;15.97;;
22983;SDS011;11658;48.908;9.140;2022-08-19T07:46:38;17.63;;;15.93;;
22983;SDS011;11658;48.908;9.140;2022-08-19T07:49:06;17.60;;;15.83;;
22983;SDS011;11658;48.908;9.140;2022-08-19T07:51:32;17.93;;;16.10;;
22983;SDS011;11658;48.908;9.140;2022-08-19T07:53:58;17.47;;;15.73;;
22983;SDS011;11658;48.908;9.140;2022-08-19T07:56:25;16.87;;;15.07;;
22983;SDS011;11658;48.908;9.140;2022-08-19T07:58:51;16.70;;;15.00;;
22983;SDS011;11658;48.908;9.140;2022-08-19T08:01:19;16.60;;;14.97;;
22983;SDS011;11658;48.908;9.140;2022-08-19T08:03:49;17.17;;;15.37;;
22983;SDS011;11658;48.908;9.140;2022-08-19T08:06:33;20.40;;;15.67;;
22983;SDS011;11658;48.908;9.140;2022-08-19T08:09:22;16.13;;;14.53;;
22983;SDS011;11658;48.908;9.140;2022-08-19T08:11:51;17.53;;;14.83;;
22983;SDS011;11658;48.908;9.140;2022-08-19T08:14:24;16.87;;;15.10;;
22983;SDS011;11658;48.908;9.140;2022-08-19T08:16:58;16.47;;;14.63;;
22983;SDS011;11658;48.908;9.140;2022-08-19T08:19:25;17.70;;;14.57;;
22983;SDS011;11658;48.908;9.140;2022-08-19T08:21:53;16.70;;;14.67;;
22983;SDS011;11658;48.908;9.140;2022-08-19T08:24:21;16.80;;;15.10;;
22983;SDS011;11658;48.908;9.140;2022-08-19T08:26:47;17.30;;;13.47;;
22983;SDS011;11658;48.908;9.140;2022-08-19T08:29:13;14.97;;;13.57;;
22983;SDS011;11658;48.908;9.140;2022-08-19T08:31:40;15.57;;;14.07;;
22983;SDS011;11658;48.908;9.140;2022-08-19T08:34:07;14.90;;;13.50;;
22983;SDS011;11658;48.908;9.140;2022-08-19T08:36:36;14.73;;;13.23;;
22983;SDS011;11658;48.908;9.140;2022-08-19T08:39:07;16.20;;;13.70;;
22983;SDS011;11658;48.908;9.140;2022-08-19T08:41:39;15.70;;;13.23;;
22983;SDS011;11658;48.908;9.140;2022-08-19T08:44:23;14.33;;;12.83;;
22983;SDS011;11658;48.908;9.140;2022-08-19T08:46:54;15.90;;;14.10;;
22983;SDS011;11658;48.908;9.140;2022-08-19T08:49:28;14.33;;;12.83;;
22983;SDS011;11658;48.908;9.140;2022-08-19T08:52:22;15.97;;;13.10;;
22983;SDS011;11658;48.908;9.140;2022-08-19T08:54:54;14.33;;;12.17;;
22983;SDS011;11658;48.908;9.140;2022-08-19T08:57:30;13.80;;;12.60;;
22983;SDS011;11658;48.908;9.140;2022-08-19T08:59:58;17.40;;;13.03;;
22983;SDS011;11658;48.908;9.140;2022-08-19T09:02:30;14.47;;;13.07;;
22983;SDS011;11658;48.908;9.140;2022-08-19T09:04:56;13.93;;;12.53;;
22983;SDS011;11658;48.908;9.140;2022-08-19T09:12:54;17.52;;;12.23;;
22983;SDS011;11658;48.908;9.140;2022-08-19T09:15:34;15.00;;;13.07;;
22983;SDS011;11658;48.908;9.140;2022-08-19T09:18:05;14.87;;;12.17;;
22983;SDS011;11658;48.908;9.140;2022-08-19T09:20:31;12.90;;;11.68;;
22983;SDS011;11658;48.908;9.140;2022-08-19T09:22:57;13.88;;;11.88;;
22983;SDS011;11658;48.908;9.140;2022-08-19T09:25:23;14.27;;;11.93;;
22983;SDS011;11658;48.908;9.140;2022-08-19T09:27:49;15.40;;;11.60;;
22983;SDS011;11658;48.908;9.140;2022-08-19T09:30:27;12.82;;;11.38;;
22983;SDS011;11658;48.908;9.140;2022-08-19T09:32:55;12.15;;;10.90;;
22983;SDS011;11658;48.908;9.140;2022-08-19T09:35:22;13.17;;;11.03;;
22983;SDS011;11658;48.908;9.140;2022-08-19T09:37:49;14.32;;;11.63;;
22983;SDS011;11658;48.908;9.140;2022-08-19T09:40:16;12.77;;;11.47;;
22983;SDS011;11658;48.908;9.140;2022-08-19T09:42:43;14.07;;;11.50;;
22983;SDS011;11658;48.908;9.140;2022-08-19T09:45:12;13.38;;;10.73;;
22983;SDS011;11658;48.908;9.140;2022-08-19T09:47:38;11.50;;;10.30;;
22983;SDS011;11658;48.908;9.140;2022-08-19T09:50:05;11.90;;;10.70;;
22983;SDS011;11658;48.908;9.140;2022-08-19T09:52:32;11.80;;;10.60;;
22983;SDS011;11658;48.908;9.140;2022-08-19T09:54:59;12.23;;;10.97;;
22983;SDS011;11658;48.908;9.140;2022-08-19T09:57:25;12.23;;;11.03;;
22983;SDS011;11658;48.908;9.140;2022-08-19T09:59:50;15.40;;;10.87;;
22983;SDS011;11658;48.908;9.140;2022-08-19T10:02:16;11.83;;;10.37;;
22983;SDS011;11658;48.908;9.140;2022-08-19T10:04:42;11.20;;;10.07;;
22983;SDS011;11658;48.908;9.140;2022-08-19T10:07:28;11.97;;;10.73;;
22983;SDS011;11658;48.908;9.140;2022-08-19T10:09:55;13.60;;;10.47;;
22983;SDS011;11658;48.908;9.140;2022-08-19T10:12:20;11.07;;;9.87;;
22983;SDS011;11658;48.908;9.140;2022-08-19T10:14:47;11.55;;;10.15;;
22983;SDS011;11658;48.908;9.140;2022-08-19T10:17:13;10.73;;;9.20;;
22983;SDS011;11658;48.908;9.140;2022-08-19T10:19:39;10.20;;;9.20;;
22983;SDS011;11658;48.908;9.140;2022-08-19T10:22:05;10.98;;;9.40;;
22983;SDS011;11658;48.908;9.140;2022-08-19T10:24:32;10.97;;;8.50;;
22983;SDS011;11658;48.908;9.140;2022-08-19T10:26:59;9.27;;;8.38;;
22983;SDS011;11658;48.908;9.140;2022-08-19T10:29:28;9.98;;;8.98;;
22983;SDS011;11658;48.908;9.140;2022-08-19T10:31:54;11.32;;;8.20;;
22983;SDS011;11658;48.908;9.140;2022-08-19T10:34:21;8.63;;;7.72;;
22983;SDS011;11658;48.908;9.140;2022-08-19T10:36:47;9.35;;;6.72;;
22983;SDS011;11658;48.908;9.140;2022-08-19T10:39:13;8.18;;;6.60;;
22983;SDS011;11658;48.908;9.140;2022-08-19T10:41:39;8.25;;;6.30;;
22983;SDS011;11658;48.908;9.140;2022-08-19T10:44:08;7.57;;;6.25;;
22983;SDS011;11658;48.908;9.140;2022-08-19T10:46:36;7.90;;;5.93;;
22983;SDS011;11658;48.908;9.140;2022-08-19T10:49:06;6.93;;;6.20;;
22983;SDS011;11658;48.908;9.140;2022-08-19T10:51:33;8.25;;;5.65;;
22983;SDS011;11658;48.908;9.140;2022-08-19T10:54:18;6.45;;;5.80;;
22983;SDS011;11658;48.908;9.140;2022-08-19T10:56:44;7.22;;;5.35;;
22983;SDS011;11658;48.908;9.140;2022-08-19T10:59:16;6.57;;;5.80;;
22983;SDS011;11658;48.908;9.140;2022-08-19T11:01:51;9.02;;;6.10;;
22983;SDS011;11658;48.908;9.140;2022-08-19T11:04:17;6.38;;;5.78;;
22983;SDS011;11658;48.908;9.140;2022-08-19T11:06:44;7.20;;;5.85;;
22983;SDS011;11658;48.908;9.140;2022-08-19T11:09:12;7.25;;;6.53;;
22983;SDS011;11658;48.908;9.140;2022-08-19T11:11:40;6.85;;;6.13;;
22983;SDS011;11658;48.908;9.140;2022-08-19T11:14:07;7.43;;;6.20;;
22983;SDS011;11658;48.908;9.140;2022-08-19T11:16:34;7.03;;;6.38;;
22983;SDS011;11658;48.908;9.140;2022-08-19T11:19:00;7.43;;;6.10;;
22983;SDS011;11658;48.908;9.140;2022-08-19T11:21:28;6.10;;;5.50;;
22983;SDS011;11658;48.908;9.140;2022-08-19T11:24:00;7.93;;;6.13;;
22983;SDS011;11658;48.908;9.140;2022-08-19T11:26:29;6.30;;;5.68;;
22983;SDS011;11658;48.908;9.140;2022-08-19T11:28:56;7.15;;;5.63;;
22983;SDS011;11658;48.908;9.140;2022-08-19T11:31:24;6.93;;;5.47;;
22983;SDS011;11658;48.908;9.140;2022-08-19T11:33:52;6.28;;;5.68;;
22983;SDS011;11658;48.908;9.140;2022-08-19T11:36:19;6.40;;;5.80;;
22983;SDS011;11658;48.908;9.140;2022-08-19T11:38:47;6.60;;;6.00;;
22983;SDS011;11658;48.908;9.140;2022-08-19T11:41:14;6.97;;;5.85;;
22983;SDS011;11658;48.908;9.140;2022-08-19T11:43:41;8.20;;;5.40;;
22983;SDS011;11658;48.908;9.140;2022-08-19T11:46:08;6.70;;;6.10;;
22983;SDS011;11658;48.908;9.140;2022-08-19T11:48:36;6.25;;;5.65;;
22983;SDS011;11658;48.908;9.140;2022-08-19T11:51:07;6.55;;;5.90;;
22983;SDS011;11658;48.908;9.140;2022-08-19T11:53:34;6.80;;;6.15;;
22983;SDS011;11658;48.908;9.140;2022-08-19T11:56:01;7.55;;;6.15;;
22983;SDS011;11658;48.908;9.140;2022-08-19T11:58:27;6.07;;;5.55;;
22983;SDS011;11658;48.908;9.140;2022-08-19T12:00:56;6.90;;;6.30;;
22983;SDS011;11658;48.908;9.140;2022-08-19T12:03:22;7.50;;;6.28;;
22983;SDS011;11658;48.908;9.140;2022-08-19T12:05:48;6.30;;;5.68;;
22983;SDS011;11658;48.908;9.140;2022-08-19T12:08:15;6.68;;;5.75;;
22983;SDS011;11658;48.908;9.140;2022-08-19T12:10:41;6.88;;;6.10;;
22983;SDS011;11658;48.908;9.140;2022-08-19T12:13:09;6.88;;;6.18;;
22983;SDS011;11658;48.908;9.140;2022-08-19T12:15:36;7.07;;;6.38;;
22983;SDS011;11658;48.908;9.140;2022-08-19T12:18:03;7.47;;;6.53;;
22983;SDS011;11658;48.908;9.140;2022-08-19T12:20:29;6.70;;;6.03;;
22983;SDS011;11658;48.908;9.140;2022-08-19T12:22:55;6.28;;;5.68;;
22983;SDS011;11658;48.908;9.140;2022-08-19T12:25:20;6.18;;;5.57;;
22983;SDS011;11658;48.908;9.140;2022-08-19T12:27:46;6.40;;;5.78;;
22983;SDS011;11658;48.908;9.140;2022-08-19T12:30:12;6.13;;;5.40;;
22983;SDS011;11658;48.908;9.140;2022-08-19T12:32:39;6.15;;;5.20;;
22983;SDS011;11658;48.908;9.140;2022-08-19T12:35:06;6.22;;;5.43;;
22983;SDS011;11658;48.908;9.140;2022-08-19T12:37:34;6.72;;;5.38;;
22983;SDS011;11658;48.908;9.140;2022-08-19T12:39:59;5.25;;;4.85;;
22983;SDS011;11658;48.908;9.140;2022-08-19T12:42:25;5.85;;;5.35;;
22983;SDS011;11658;48.908;9.140;2022-08-19T12:44:51;5.35;;;4.93;;
22983;SDS011;11658;48.908;9.140;2022-08-19T12:47:17;6.13;;;5.20;;
22983;SDS011;11658;48.908;9.140;2022-08-19T12:49:43;8.55;;;5.95;;
22983;SDS011;11658;48.908;9.140;2022-08-19T12:52:10;5.95;;;5.35;;
22983;SDS011;11658;48.908;9.140;2022-08-19T12:54:36;6.22;;;5.20;;
22983;SDS011;11658;48.908;9.140;2022-08-19T12:57:05;7.63;;;5.63;;
22983;SDS011;11658;48.908;9.140;2022-08-19T12:59:33;5.72;;;5.07;;
22983;SDS011;11658;48.908;9.140;2022-08-19T13:02:01;5.10;;;4.70;;
22983;SDS011;11658;48.908;9.140;2022-08-19T13:04:28;5.25;;;4.75;;
22983;SDS011;11658;48.908;9.140;2022-08-19T13:06:54;6.53;;;4.82;;
22983;SDS011;11658;48.908;9.140;2022-08-19T13:09:19;5.25;;;4.72;;
22983;SDS011;11658;48.908;9.140;2022-08-19T13:11:45;4.95;;;4.53;;
22983;SDS011;11658;48.908;9.140;2022-08-19T13:14:10;5.25;;;4.40;;
22983;SDS011;11658;48.908;9.140;2022-08-19T13:16:36;4.50;;;4.10;;
22983;SDS011;11658;48.908;9.140;2022-08-19T13:19:03;5.55;;;4.68;;
22983;SDS011;11658;48.908;9.140;2022-08-19T13:21:30;5.53;;;4.35;;
22983;SDS011;11658;48.908;9.140;2022-08-19T13:23:56;5.97;;;3.72;;
22983;SDS011;11658;48.908;9.140;2022-08-19T13:26:22;4.25;;;3.95;;
22983;SDS011;11658;48.908;9.140;2022-08-19T13:28:48;4.63;;;4.22;;
22983;SDS011;11658;48.908;9.140;2022-08-19T13:31:33;5.47;;;3.88;;
22983;SDS011;11658;48.908;9.140;2022-08-19T13:34:25;5.50;;;4.75;;
22983;SDS011;11658;48.908;9.140;2022-08-19T13:36:57;5.68;;;4.15;;
22983;SDS011;11658;48.908;9.140;2022-08-19T13:39:23;5.32;;;4.13;;
22983;SDS011;11658;48.908;9.140;2022-08-19T13:41:49;5.03;;;4.53;;
22983;SDS011;11658;48.908;9.140;2022-08-19T13:44:18;6.22;;;4.35;;
22983;SDS011;11658;48.908;9.140;2022-08-19T13:46:44;6.22;;;5.03;;
22983;SDS011;11658;48.908;9.140;2022-08-19T13:49:12;6.35;;;4.80;;
22983;SDS011;11658;48.908;9.140;2022-08-19T13:51:39;6.43;;;4.80;;
22983;SDS011;11658;48.908;9.140;2022-08-19T13:54:07;6.28;;;4.80;;
22983;SDS011;11658;48.908;9.140;2022-08-19T13:56:34;5.68;;;5.10;;
22983;SDS011;11658;48.908;9.140;2022-08-19T13:59:00;5.22;;;4.72;;
22983;SDS011;11658;48.908;9.140;2022-08-19T14:01:26;6.18;;;4.97;;
22983;SDS011;11658;48.908;9.140;2022-08-19T14:03:53;5.20;;;4.70;;
22983;SDS011;11658;48.908;9.140;2022-08-19T14:06:19;5.30;;;4.80;;
22983;SDS011;11658;48.908;9.140;2022-08-19T14:08:46;4.78;;;4.38;;
22983;SDS011;11658;48.908;9.140;2022-08-19T14:11:11;7.80;;;6.55;;
22983;SDS011;11658;48.908;9.140;2022-08-19T14:13:37;10.15;;;8.55;;
22983;SDS011;11658;48.908;9.140;2022-08-19T14:16:07;11.77;;;8.63;;
22983;SDS011;11658;48.908;9.140;2022-08-19T14:18:34;13.43;;;10.55;;
22983;SDS011;11658;48.908;9.140;2022-08-19T14:21:00;13.45;;;11.40;;
22983;SDS011;11658;48.908;9.140;2022-08-19T14:23:25;11.43;;;10.32;;
22983;SDS011;11658;48.908;9.140;2022-08-19T14:25:51;13.48;;;12.10;;
22983;SDS011;11658;48.908;9.140;2022-08-19T14:28:17;12.50;;;11.20;;
22983;SDS011;11658;48.908;9.140;2022-08-19T14:30:42;11.82;;;10.75;;
22983;SDS011;11658;48.908;9.140;2022-08-19T14:33:09;14.05;;;12.05;;
22983;SDS011;11658;48.908;9.140;2022-08-19T14:35:35;16.30;;;14.60;;
22983;SDS011;11658;48.908;9.140;2022-08-19T14:38:03;18.27;;;15.57;;
22983;SDS011;11658;48.908;9.140;2022-08-19T14:40:30;16.52;;;14.75;;
22983;SDS011;11658;48.908;9.140;2022-08-19T14:42:57;15.95;;;14.35;;
22983;SDS011;11658;48.908;9.140;2022-08-19T14:45:28;14.80;;;13.50;;
22983;SDS011;11658;48.908;9.140;2022-08-19T14:47:55;16.00;;;13.65;;
22983;SDS011;11658;48.908;9.140;2022-08-19T14:50:21;12.82;;;11.55;;
22983;SDS011;11658;48.908;9.140;2022-08-19T14:52:47;12.35;;;11.07;;
22983;SDS011;11658;48.908;9.140;2022-08-19T14:55:15;11.73;;;10.52;;
22983;SDS011;11658;48.908;9.140;2022-08-19T14:57:42;13.45;;;12.15;;
22983;SDS011;11658;48.908;9.140;2022-08-19T15:00:08;12.27;;;11.07;;
22983;SDS011;11658;48.908;9.140;2022-08-19T15:02:38;11.45;;;10.18;;
22983;SDS011;11658;48.908;9.140;2022-08-19T15:05:05;10.98;;;9.75;;
22983;SDS011;11658;48.908;9.140;2022-08-19T15:07:31;10.88;;;9.50;;
22983;SDS011;11658;48.908;9.140;2022-08-19T15:09:57;11.48;;;10.27;;
22983;SDS011;11658;48.908;9.140;2022-08-19T15:12:23;14.15;;;12.75;;
22983;SDS011;11658;48.908;9.140;2022-08-19T15:14:49;15.43;;;13.93;;
22983;SDS011;11658;48.908;9.140;2022-08-19T15:17:15;12.65;;;11.35;;
22983;SDS011;11658;48.908;9.140;2022-08-19T15:19:41;14.82;;;13.43;;
22983;SDS011;11658;48.908;9.140;2022-08-19T15:22:07;14.23;;;12.73;;
22983;SDS011;11658;48.908;9.140;2022-08-19T15:24:33;14.68;;;13.07;;
22983;SDS011;11658;48.908;9.140;2022-08-19T15:27:00;15.35;;;13.82;;
22983;SDS011;11658;48.908;9.140;2022-08-19T15:29:26;14.45;;;12.95;;
22983;SDS011;11658;48.908;9.140;2022-08-19T15:31:52;16.70;;;15.02;;
22983;SDS011;11658;48.908;9.140;2022-08-19T15:34:23;15.25;;;13.75;;
22983;SDS011;11658;48.908;9.140;2022-08-19T15:36:49;15.73;;;13.77;;
22983;SDS011;11658;48.908;9.140;2022-08-19T15:39:16;16.25;;;14.65;;
22983;SDS011;11658;48.908;9.140;2022-08-19T15:41:43;14.60;;;13.10;;
22983;SDS011;11658;48.908;9.140;2022-08-19T15:44:11;13.98;;;12.57;;
22983;SDS011;11658;48.908;9.140;2022-08-19T15:46:40;14.63;;;13.13;;
22983;SDS011;11658;48.908;9.140;2022-08-19T15:49:07;13.10;;;11.90;;
22983;SDS011;11658;48.908;9.140;2022-08-19T15:51:35;14.15;;;12.20;;
22983;SDS011;11658;48.908;9.140;2022-08-19T15:54:02;15.90;;;14.25;;
22983;SDS011;11658;48.908;9.140;2022-08-19T15:56:29;18.63;;;16.20;;
22983;SDS011;11658;48.908;9.140;2022-08-19T15:59:13;18.00;;;16.20;;
22983;SDS011;11658;48.908;9.140;2022-08-19T16:01:57;16.30;;;14.60;;
22983;SDS011;11658;48.908;9.140;2022-08-19T16:04:41;16.80;;;15.10;;
22983;SDS011;11658;48.908;9.140;2022-08-19T16:07:25;17.30;;;15.70;;
22983;SDS011;11658;48.908;9.140;2022-08-19T16:09:51;17.02;;;15.23;;
22983;SDS011;11658;48.908;9.140;2022-08-19T16:12:16;17.02;;;15.43;;
22983;SDS011;11658;48.908;9.140;2022-08-19T16:14:43;17.10;;;15.40;;
22983;SDS011;11658;48.908;9.140;2022-08-19T16:17:09;16.08;;;14.52;;
22983;SDS011;11658;48.908;9.140;2022-08-19T16:19:36;15.77;;;14.23;;
22983;SDS011;11658;48.908;9.140;2022-08-19T16:22:02;17.95;;;16.30;;
22983;SDS011;11658;48.908;9.140;2022-08-19T16:24:29;16.38;;;14.68;;
22983;SDS011;11658;48.908;9.140;2022-08-19T16:26:55;18.63;;;16.55;;
22983;SDS011;11658;48.908;9.140;2022-08-19T16:29:21;18.15;;;16.25;;
22983;SDS011;11658;48.908;9.140;2022-08-19T16:31:47;18.20;;;16.42;;
22983;SDS011;11658;48.908;9.140;2022-08-19T16:34:14;19.30;;;17.30;;
22983;SDS011;11658;48.908;9.140;2022-08-19T16:36:39;18.95;;;17.05;;
22983;SDS011;11658;48.908;9.140;2022-08-19T16:39:06;19.03;;;17.10;;
22983;SDS011;11658;48.908;9.140;2022-08-19T16:41:33;18.53;;;16.80;;
22983;SDS011;11658;48.908;9.140;2022-08-19T16:44:01;19.40;;;16.08;;
22983;SDS011;11658;48.908;9.140;2022-08-19T16:46:28;19.60;;;16.67;;
22983;SDS011;11658;48.908;9.140;2022-08-19T16:48:53;17.42;;;15.60;;
22983;SDS011;11658;48.908;9.140;2022-08-19T16:51:19;18.48;;;16.60;;
22983;SDS011;11658;48.908;9.140;2022-08-19T16:53:46;16.27;;;14.68;;
22983;SDS011;11658;48.908;9.140;2022-08-19T16:56:13;15.70;;;14.10;;
22983;SDS011;11658;48.908;9.140;2022-08-19T16:58:39;15.80;;;13.95;;
22983;SDS011;11658;48.908;9.140;2022-08-19T17:01:06;14.68;;;13.23;;
22983;SDS011;11658;48.908;9.140;2022-08-19T17:03:34;16.65;;;15.05;;
22983;SDS011;11658;48.908;9.140;2022-08-19T17:06:01;16.55;;;14.95;;
22983;SDS011;11658;48.908;9.140;2022-08-19T17:08:32;18.30;;;16.50;;
22983;SDS011;11658;48.908;9.140;2022-08-19T17:10:58;17.53;;;15.83;;
22983;SDS011;11658;48.908;9.140;2022-08-19T17:13:25;17.03;;;15.37;;
22983;SDS011;11658;48.908;9.140;2022-08-19T17:15:52;18.92;;;16.02;;
22983;SDS011;11658;48.908;9.140;2022-08-19T17:18:19;18.20;;;16.50;;
22983;SDS011;11658;48.908;9.140;2022-08-19T17:20:46;18.30;;;16.38;;
22983;SDS011;11658;48.908;9.140;2022-08-19T17:23:13;17.73;;;15.93;;
22983;SDS011;11658;48.908;9.140;2022-08-19T17:25:39;18.77;;;16.43;;
22983;SDS011;11658;48.908;9.140;2022-08-19T17:30:53;15.23;;;13.83;;
22983;SDS011;11658;48.908;9.140;2022-08-19T17:33:19;16.27;;;14.67;;
22983;SDS011;11658;48.908;9.140;2022-08-19T17:35:45;15.53;;;13.93;;
22983;SDS011;11658;48.908;9.140;2022-08-19T17:38:13;16.40;;;14.87;;
22983;SDS011;11658;48.908;9.140;2022-08-19T17:40:41;16.30;;;14.60;;
22983;SDS011;11658;48.908;9.140;2022-08-19T17:43:07;15.57;;;14.07;;